aviador You're here:

CYGV Decoded Metar

HAVRE ST PIERRE in QC, CANADA
Report Time2017-10-22 16:00:00
UTC Time2017-10-22 17:10:52
Flight Rules Old
Wind260° at 13 Gusting to 18 kt
W.Decomp.*RWY 26: 12.2 kt HW 4.4 kt RCW
W.Rank260° ranks 1
Current wind is above 260° avg. (12.8)
Visibility9999 m
Phenomena:N/A
Clouds:Few 250 Hf
Expected CloudBase > 3,600 ft AGL from Temp-Dew spread
CeilingNone
Temp04°C (ISA -11)
Dew Point-5°C (52% RH)
AAT-3.3°C
QNH1032 hPa
Density Alt-1,781 ft
Elevation108 ft
Report Wrong Elevation
Raw Report
CYGV 221600Z AUTO 26013G18KT 9SM FEW250 04/M05 A3047 RMK
SLP320=

Extra information for CYGV:More info

Metar Taf Metar & Taf Last 4 Metars F.Rules Stats Wind Profile Meteogram Temp Stats Airport Information Weather charts Add Link Nearby VenuesMetar ALERT Operation Metar Decoded Social comments